createdAt,value
2023-04-01T00:02:00.441Z,99800.47
2023-04-01T00:04:29.254Z,99798.69
2023-04-01T00:06:56.257Z,99798.72
2023-04-01T00:09:23.596Z,99800.63
2023-04-01T00:11:51.436Z,99799.97
2023-04-01T00:14:19.177Z,99800.19
2023-04-01T00:16:46.238Z,99791.66
2023-04-01T00:19:14.846Z,99790.88
2023-04-01T00:21:42.241Z,99791.00
2023-04-01T00:24:09.564Z,99796.38
2023-04-01T00:26:36.663Z,99790.34
2023-04-01T00:29:04.070Z,99791.28
2023-04-01T00:31:31.316Z,99793.00
2023-04-01T00:33:58.807Z,99797.38
2023-04-01T00:36:26.244Z,99800.66
2023-04-01T00:38:54.007Z,99797.94
2023-04-01T00:41:22.768Z,99797.13
2023-04-01T00:44:14.360Z,99801.63
2023-04-01T00:46:41.373Z,99802.44
2023-04-01T00:49:10.727Z,99798.03
2023-04-01T00:51:39.280Z,99792.81
2023-04-01T00:54:08.768Z,99792.09
2023-04-01T00:56:40.760Z,99786.91
2023-04-01T00:59:17.239Z,99776.56
2023-04-01T01:01:44.222Z,99774.06
2023-04-01T01:04:41.306Z,99776.88
2023-04-01T01:07:14.629Z,99774.38
2023-04-01T01:10:11.794Z,99773.47
2023-04-01T01:13:04.779Z,99774.25
2023-04-01T01:15:47.487Z,99761.88
2023-04-01T01:18:23.450Z,99759.97
2023-04-01T01:20:56.846Z,99760.75
2023-04-01T01:23:51.335Z,99753.75
2023-04-01T01:26:30.755Z,99738.97
2023-04-01T01:29:09.725Z,99743.41
2023-04-01T01:31:58.323Z,99741.72
2023-04-01T01:34:31.347Z,99738.34
2023-04-01T01:37:14.044Z,99740.25
2023-04-01T01:39:42.856Z,99736.81
2023-04-01T01:42:14.480Z,99733.44
2023-04-01T01:44:45.338Z,99737.97
2023-04-01T01:47:14.614Z,99740.72
2023-04-01T01:49:44.359Z,99734.69
2023-04-01T01:52:12.619Z,99729.56
2023-04-01T01:54:53.881Z,99723.47
2023-04-01T01:57:27.466Z,99726.13
2023-04-01T01:59:59.534Z,99723.56
2023-04-01T02:02:27.875Z,99725.47
2023-04-01T02:04:55.772Z,99723.72
2023-04-01T02:07:28.815Z,99732.47
2023-04-01T02:09:57.701Z,99722.84
2023-04-01T02:12:25.967Z,99720.22
2023-04-01T02:14:58.305Z,99720.28
2023-04-01T02:17:30.276Z,99716.91
2023-04-01T02:20:01.218Z,99719.59
2023-04-01T02:22:38.369Z,99718.84
2023-04-01T02:25:29.565Z,99710.31
2023-04-01T02:27:59.379Z,99713.06
2023-04-01T02:30:29.585Z,99703.56
2023-04-01T02:32:59.311Z,99694.03
2023-04-01T02:35:26.966Z,99693.22
2023-04-01T02:37:57.123Z,99697.56
2023-04-01T02:40:24.138Z,99694.09
2023-04-01T02:42:51.800Z,99694.94
2023-04-01T02:45:18.939Z,99690.59
2023-04-01T02:47:46.373Z,99684.41
2023-04-01T02:50:13.430Z,99680.72
2023-04-01T02:52:40.988Z,99690.28
2023-04-01T02:55:08.337Z,99676.22
2023-04-01T02:57:36.636Z,99677.16
2023-04-01T03:00:04.723Z,99677.09
2023-04-01T03:02:32.080Z,99678.91
2023-04-01T03:04:59.207Z,99671.97
2023-04-01T03:07:26.508Z,99676.41
2023-04-01T03:09:53.466Z,99686.06
2023-04-01T03:12:20.773Z,99680.81
2023-04-01T03:14:47.858Z,99687.75
2023-04-01T03:17:15.544Z,99686.03
2023-04-01T03:19:42.930Z,99685.09
2023-04-01T03:22:12.491Z,99689.44
2023-04-01T03:24:39.482Z,99699.97
2023-04-01T03:27:06.784Z,99693.84
2023-04-01T03:29:33.905Z,99685.97
2023-04-01T03:32:01.417Z,99692.19
2023-04-01T03:34:28.384Z,99695.75
2023-04-01T03:36:56.149Z,99684.44
2023-04-01T03:39:23.456Z,99684.44
2023-04-01T03:41:51.133Z,99684.44
2023-04-01T03:44:19.190Z,99686.22
2023-04-01T03:46:47.880Z,99677.53
2023-04-01T03:49:16.831Z,99685.28
2023-04-01T03:51:44.862Z,99680.94
2023-04-01T03:54:12.280Z,99678.22
2023-04-01T03:56:42.254Z,99686.91
2023-04-01T03:59:09.930Z,99686.09
2023-04-01T04:01:39.775Z,99684.28
2023-04-01T04:04:07.081Z,99679.84
2023-04-01T04:06:38.044Z,99679.78
2023-04-01T04:09:05.154Z,99673.63
2023-04-01T04:11:36.355Z,99681.34
2023-04-01T04:14:03.792Z,99673.59
2023-04-01T04:16:31.506Z,99677.84
2023-04-01T04:19:00.553Z,99681.19
2023-04-01T04:21:28.523Z,99675.88
2023-04-01T04:23:55.892Z,99681.84
2023-04-01T04:26:23.633Z,99677.38
2023-04-01T04:28:51.340Z,99669.47
2023-04-01T04:31:25.998Z,99669.41
2023-04-01T04:33:53.654Z,99672.81
2023-04-01T04:36:22.389Z,99667.38
2023-04-01T04:38:50.574Z,99662.06
2023-04-01T04:41:20.212Z,99660.19
2023-04-01T04:43:56.244Z,99662.69
2023-04-01T04:46:24.774Z,99654.69
2023-04-01T04:48:52.017Z,99648.38
2023-04-01T04:51:21.724Z,99660.41
2023-04-01T04:53:52.717Z,99661.13
2023-04-01T04:56:23.981Z,99668.75
2023-04-01T04:58:51.139Z,99659.81
2023-04-01T05:01:19.778Z,99660.47
2023-04-01T05:03:48.494Z,99668.00
2023-04-01T05:06:17.503Z,99669.53
2023-04-01T05:08:45.755Z,99670.84
2023-04-01T05:11:15.679Z,99669.66
2023-04-01T05:13:43.940Z,99662.16
2023-04-01T05:16:17.792Z,99661.72
2023-04-01T05:18:44.868Z,99662.16
2023-04-01T05:21:14.119Z,99656.50
2023-04-01T05:23:41.830Z,99655.22
2023-04-01T05:26:14.423Z,99654.69
2023-04-01T05:28:41.563Z,99641.03
2023-04-01T05:31:10.417Z,99655.50
2023-04-01T05:33:37.499Z,99656.91
2023-04-01T05:36:13.412Z,99659.97
2023-04-01T05:38:41.890Z,99661.31
2023-04-01T05:41:09.455Z,99664.34
2023-04-01T05:43:41.090Z,99664.03
2023-04-01T05:46:09.035Z,99660.06
2023-04-01T05:48:36.389Z,99662.28
2023-04-01T05:51:05.106Z,99647.81
2023-04-01T05:53:33.729Z,99658.03
2023-04-01T05:56:05.545Z,99664.72
2023-04-01T05:58:32.850Z,99661.69
2023-04-01T06:01:12.825Z,99670.09
2023-04-01T06:03:43.646Z,99666.34
2023-04-01T06:06:20.089Z,99671.47
2023-04-01T06:08:47.799Z,99667.06
2023-04-01T06:11:30.152Z,99661.72
2023-04-01T06:14:12.982Z,99661.38
2023-04-01T06:16:59.786Z,99664.59
2023-04-01T06:19:53.938Z,99663.38
2023-04-01T06:22:50.875Z,99670.03
2023-04-01T06:25:48.639Z,99672.44
2023-04-01T06:32:05.517Z,99662.97
2023-04-01T06:34:39.881Z,99665.94
2023-04-01T06:37:39.892Z,99668.13
2023-04-01T06:40:24.004Z,99657.09
2023-04-01T06:43:29.732Z,99656.56
2023-04-01T06:46:10.495Z,99658.81
2023-04-01T06:54:51.240Z,99651.97
2023-04-01T06:57:38.000Z,99640.56
2023-04-01T07:00:30.277Z,99644.06
2023-04-01T07:03:46.063Z,99641.38
2023-04-01T07:06:32.133Z,99639.63
2023-04-01T07:09:04.209Z,99643.09
2023-04-01T07:11:35.536Z,99631.72
2023-04-01T07:14:23.554Z,99628.28
2023-04-01T07:17:00.452Z,99631.25
2023-04-01T07:19:36.011Z,99626.16
2023-04-01T07:22:40.100Z,99624.78
2023-04-01T07:25:14.805Z,99626.03
2023-04-01T07:27:47.417Z,99621.63
2023-04-01T07:30:20.309Z,99620.88
2023-04-01T07:32:56.827Z,99614.53
2023-04-01T07:35:42.114Z,99607.91
2023-04-01T07:38:33.448Z,99606.88
2023-04-01T07:41:14.738Z,99584.16
2023-04-01T07:44:05.825Z,99575.09
2023-04-01T07:46:54.799Z,99580.28
2023-04-01T08:00:42.837Z,99576.22
2023-04-01T08:03:19.698Z,99560.06
2023-04-01T08:06:01.327Z,99571.06
2023-04-01T08:08:47.710Z,99569.50
2023-04-01T08:11:38.009Z,99567.78
2023-04-01T08:14:26.107Z,99560.38
2023-04-01T08:17:02.062Z,99560.94
2023-04-01T08:19:51.466Z,99547.28
2023-04-01T08:22:30.365Z,99552.53
2023-04-01T08:25:03.714Z,99553.44
2023-04-01T08:27:57.992Z,99554.59
2023-04-01T08:31:01.790Z,99544.38
2023-04-01T08:33:31.735Z,99539.09
2023-04-01T08:36:13.781Z,99550.56
2023-04-01T08:38:59.164Z,99547.44
2023-04-01T08:41:57.819Z,99549.63
2023-04-01T08:44:46.920Z,99546.69
2023-04-01T08:48:01.747Z,99550.22
2023-04-01T08:50:57.439Z,99541.72
2023-04-01T08:53:53.621Z,99531.53
2023-04-01T08:56:36.564Z,99528.91
2023-04-01T08:59:44.605Z,99525.44
2023-04-01T09:02:44.399Z,99525.09
2023-04-01T09:05:38.067Z,99522.44
2023-04-01T09:08:18.752Z,99518.41
2023-04-01T09:10:49.038Z,99526.97
2023-04-01T09:13:43.557Z,99512.44
2023-04-01T09:16:37.137Z,99509.19
2023-04-01T09:19:26.880Z,99510.16
2023-04-01T09:22:13.055Z,99507.19
2023-04-01T09:25:18.928Z,99491.63
2023-04-01T09:27:57.984Z,99487.63
2023-04-01T09:30:37.323Z,99485.56
2023-04-01T09:33:12.003Z,99475.66
2023-04-01T09:35:50.244Z,99486.75
2023-04-01T09:38:54.958Z,99480.75
2023-04-01T09:42:03.818Z,99489.66
2023-04-01T09:44:34.942Z,99476.13
2023-04-01T09:47:11.500Z,99475.19
2023-04-01T09:49:50.758Z,99475.34
2023-04-01T09:52:39.375Z,99467.41
2023-04-01T09:55:07.804Z,99470.78
2023-04-01T09:57:53.813Z,99464.28
2023-04-01T10:00:29.136Z,99468.13
2023-04-01T10:03:17.044Z,99470.75
2023-04-01T10:06:22.384Z,99463.28
2023-04-01T10:09:41.987Z,99467.19
2023-04-01T10:12:28.721Z,99468.72
2023-04-01T10:15:20.671Z,99467.25
2023-04-01T10:18:06.248Z,99453.38
2023-04-01T10:20:56.172Z,99450.81
2023-04-01T10:23:52.612Z,99443.84
2023-04-01T10:27:03.877Z,99446.34
2023-04-01T10:29:54.445Z,99443.06
2023-04-01T10:32:42.343Z,99453.03
2023-04-01T10:35:13.605Z,99445.25
2023-04-01T10:38:12.050Z,99441.69
2023-04-01T10:40:49.086Z,99441.84
2023-04-01T10:43:41.288Z,99436.78
2023-04-01T10:46:42.776Z,99441.91
2023-04-01T10:49:17.134Z,99443.84
2023-04-01T10:52:08.106Z,99437.66
2023-04-01T10:54:47.066Z,99431.91
2023-04-01T10:57:38.343Z,99423.88
2023-04-01T11:00:21.518Z,99417.56
2023-04-01T11:03:38.881Z,99411.22
2023-04-01T11:06:28.178Z,99410.03
2023-04-01T11:08:55.550Z,99410.53
2023-04-01T11:11:56.804Z,99410.31
2023-04-01T11:14:59.206Z,99405.81
2023-04-01T11:17:49.375Z,99395.84
2023-04-01T11:20:48.049Z,99396.47
2023-04-01T11:23:51.942Z,99395.72
2023-04-01T11:26:51.443Z,99393.06
2023-04-01T11:30:00.485Z,99400.34
2023-04-01T11:33:05.822Z,99392.53
2023-04-01T11:36:16.423Z,99389.38
2023-04-01T11:39:11.093Z,99383.28
2023-04-01T11:42:12.443Z,99389.63
2023-04-01T11:45:06.151Z,99385.97
2023-04-01T11:47:56.062Z,99382.06
2023-04-01T11:50:44.933Z,99375.53
2023-04-01T11:53:27.305Z,99372.72
2023-04-01T11:56:18.145Z,99368.97
2023-04-01T11:59:22.834Z,99369.09
2023-04-01T12:02:08.760Z,99366.41
2023-04-01T12:04:43.664Z,99365.78
2023-04-01T12:10:34.596Z,99367.00
2023-04-01T12:13:17.777Z,99355.94
2023-04-01T12:16:18.734Z,99361.53
2023-04-01T12:19:11.196Z,99364.31
2023-04-01T12:21:44.565Z,99364.56
2023-04-01T12:24:42.413Z,99361.88
2023-04-01T12:28:03.400Z,99363.84
2023-04-01T12:30:52.188Z,99376.09
2023-04-01T12:33:48.597Z,99379.00
2023-04-01T12:36:38.688Z,99381.09
2023-04-01T12:39:24.194Z,99383.75
2023-04-01T12:41:57.873Z,99381.94
2023-04-01T12:44:56.777Z,99368.56
2023-04-01T12:47:42.919Z,99363.31
2023-04-01T12:50:29.267Z,99372.31
2023-04-01T12:53:04.752Z,99365.38
2023-04-01T12:55:46.412Z,99357.25
2023-04-01T12:59:28.611Z,99360.75
2023-04-01T13:02:15.524Z,99358.44
2023-04-01T13:05:34.510Z,99356.25
2023-04-01T13:08:31.470Z,99355.88
2023-04-01T13:11:17.923Z,99347.09
2023-04-01T13:14:05.922Z,99343.38
2023-04-01T13:17:08.299Z,99337.59
2023-04-01T13:20:05.060Z,99329.66
2023-04-01T13:23:17.870Z,99347.66
2023-04-01T13:26:10.992Z,99335.88
2023-04-01T13:28:48.416Z,99328.19
2023-04-01T13:31:30.986Z,99331.94
2023-04-01T13:34:24.435Z,99332.88
2023-04-01T13:37:15.315Z,99340.78
2023-04-01T13:40:03.570Z,99331.28
2023-04-01T13:42:35.105Z,99332.50
2023-04-01T13:45:20.851Z,99333.78
2023-04-01T13:48:06.930Z,99340.44
2023-04-01T13:51:03.223Z,99334.69
2023-04-01T13:53:42.677Z,99343.88
2023-04-01T13:56:34.483Z,99339.19
2023-04-01T13:59:37.327Z,99345.28
2023-04-01T14:02:26.601Z,99345.16
2023-04-01T14:05:41.779Z,99345.81
2023-04-01T14:08:28.817Z,99338.91
2023-04-01T14:11:26.563Z,99338.38
2023-04-01T14:14:09.832Z,99343.50
2023-04-01T14:17:02.132Z,99347.09
2023-04-01T14:19:40.753Z,99344.72
2023-04-01T14:22:39.490Z,99352.53
2023-04-01T14:25:30.032Z,99349.41
2023-04-01T14:28:04.846Z,99345.56
2023-04-01T14:30:53.232Z,99349.47
2023-04-01T14:34:04.938Z,99350.75
2023-04-01T14:37:06.159Z,99352.75
2023-04-01T14:39:59.302Z,99358.28
2023-04-01T14:42:31.854Z,99353.28
2023-04-01T14:45:32.246Z,99358.69
2023-04-01T14:48:18.590Z,99356.13
2023-04-01T14:50:58.770Z,99354.63
2023-04-01T14:53:26.240Z,99351.22
2023-04-01T14:56:03.908Z,99349.50
2023-04-01T14:59:01.804Z,99347.97
2023-04-01T15:01:43.652Z,99344.69
2023-04-01T15:04:45.381Z,99338.81
2023-04-01T15:07:42.984Z,99346.03
2023-04-01T15:10:46.911Z,99342.72
2023-04-01T15:13:31.743Z,99340.16
2023-04-01T15:16:05.305Z,99333.13
2023-04-01T15:19:15.860Z,99344.06
2023-04-01T15:22:03.486Z,99337.00
2023-04-01T15:25:02.785Z,99339.00
2023-04-01T15:27:46.371Z,99336.00
2023-04-01T15:30:23.089Z,99340.56
2023-04-01T15:33:11.583Z,99336.47
2023-04-01T15:36:00.446Z,99342.00
2023-04-01T15:38:55.869Z,99346.66
2023-04-01T15:41:30.805Z,99346.75
2023-04-01T15:44:40.402Z,99342.81
2023-04-01T15:47:25.971Z,99346.59
2023-04-01T15:50:16.664Z,99347.72
2023-04-01T15:53:24.317Z,99350.75
2023-04-01T15:56:08.270Z,99344.16
2023-04-01T15:59:13.078Z,99340.81
2023-04-01T16:01:56.181Z,99340.16
2023-04-01T16:05:04.600Z,99351.91
2023-04-01T16:07:32.496Z,99346.97
2023-04-01T16:10:37.000Z,99351.63
2023-04-01T16:13:24.734Z,99351.91
2023-04-01T16:16:31.321Z,99347.75
2023-04-01T16:19:07.756Z,99353.22
2023-04-01T16:22:01.995Z,99358.75
2023-04-01T16:25:07.243Z,99364.22
2023-04-01T16:27:58.009Z,99356.63
2023-04-01T16:31:08.964Z,99355.03
2023-04-01T16:33:57.499Z,99357.00
2023-04-01T16:36:34.650Z,99351.97
2023-04-01T16:39:28.423Z,99359.19
2023-04-01T16:42:26.288Z,99363.66
2023-04-01T16:45:09.933Z,99371.63
2023-04-01T16:47:46.567Z,99366.47
2023-04-01T16:50:22.246Z,99364.88
2023-04-01T16:53:00.823Z,99373.00
2023-04-01T16:55:54.734Z,99377.63
2023-04-01T16:58:38.771Z,99368.25
2023-04-01T17:01:18.726Z,99362.50
2023-04-01T17:04:09.070Z,99374.16
2023-04-01T17:06:50.727Z,99383.25
2023-04-01T17:09:17.833Z,99384.03
2023-04-01T17:12:06.726Z,99383.19
2023-04-01T17:15:15.815Z,99384.22
2023-04-01T17:18:02.838Z,99379.06
2023-04-01T17:20:42.433Z,99388.91
2023-04-01T17:23:13.670Z,99389.06
2023-04-01T17:25:52.009Z,99398.13
2023-04-01T17:28:37.793Z,99394.97
2023-04-01T17:31:43.641Z,99391.47
2023-04-01T17:34:16.747Z,99395.25
2023-04-01T17:36:55.965Z,99394.38
2023-04-01T17:39:44.726Z,99397.22
2023-04-01T17:42:21.866Z,99394.66
2023-04-01T17:45:16.749Z,99396.53
2023-04-01T17:47:59.613Z,99394.06
2023-04-01T17:50:54.804Z,99393.38
2023-04-01T17:53:47.106Z,99390.03
2023-04-01T17:56:45.489Z,99387.53
2023-04-01T17:59:35.218Z,99381.59
2023-04-01T18:02:28.713Z,99384.31
2023-04-01T18:05:22.493Z,99386.19
2023-04-01T18:07:58.567Z,99388.00
2023-04-01T18:10:54.082Z,99380.03
2023-04-01T18:13:31.161Z,99383.69
2023-04-01T18:16:08.785Z,99387.31
2023-04-01T18:19:02.068Z,99385.59
2023-04-01T18:21:30.534Z,99378.50
2023-04-01T18:24:44.600Z,99376.84
2023-04-01T18:27:31.139Z,99361.28
2023-04-01T18:30:08.548Z,99377.13
2023-04-01T18:32:49.112Z,99380.63
2023-04-01T18:35:26.373Z,99378.16
2023-04-01T18:37:58.090Z,99373.84
2023-04-01T18:40:46.565Z,99384.31
2023-04-01T18:43:38.730Z,99390.53
2023-04-01T18:46:41.004Z,99394.22
2023-04-01T18:49:52.312Z,99391.56
2023-04-01T18:52:30.125Z,99383.03
2023-04-01T18:55:04.075Z,99376.97
2023-04-01T18:58:03.463Z,99375.22
2023-04-01T19:00:40.905Z,99371.97
2023-04-01T19:03:27.923Z,99380.88
2023-04-01T19:08:42.802Z,99388.91
2023-04-01T19:11:41.655Z,99391.75
2023-04-01T19:14:19.977Z,99389.16
2023-04-01T19:17:02.378Z,99390.34
2023-04-01T19:19:48.335Z,99394.63
2023-04-01T19:22:31.056Z,99391.97
2023-04-01T19:25:30.623Z,99394.72
2023-04-01T19:28:47.174Z,99393.94
2023-04-01T19:31:59.496Z,99393.19
2023-04-01T19:34:48.509Z,99397.53
2023-04-01T19:37:46.346Z,99387.69
2023-04-01T19:40:50.220Z,99386.00
2023-04-01T19:43:37.761Z,99386.84
2023-04-01T19:46:25.983Z,99388.53
2023-04-01T19:49:05.874Z,99378.06
2023-04-01T19:52:13.450Z,99374.53
2023-04-01T19:55:11.802Z,99373.59
2023-04-01T19:58:14.088Z,99384.19
2023-04-01T20:00:58.719Z,99380.59
2023-04-01T20:03:30.935Z,99380.59
2023-04-01T20:06:05.348Z,99373.59
2023-04-01T20:09:17.914Z,99377.16
2023-04-01T20:11:47.691Z,99383.25
2023-04-01T20:14:27.677Z,99377.94
2023-04-01T20:17:04.833Z,99381.53
2023-04-01T20:19:38.394Z,99380.78
2023-04-01T20:22:19.333Z,99383.25
2023-04-01T20:24:48.226Z,99387.63
2023-04-01T20:27:15.294Z,99390.97
2023-04-01T20:30:08.958Z,99394.28
2023-04-01T20:32:59.839Z,99393.16
2023-04-01T20:36:07.268Z,99394.13
2023-04-01T20:38:42.226Z,99390.78
2023-04-01T20:41:29.520Z,99382.06
2023-04-01T20:43:59.446Z,99380.38
2023-04-01T20:46:26.755Z,99384.97
2023-04-01T20:48:56.882Z,99372.81
2023-04-01T20:51:27.820Z,99371.34
2023-04-01T20:54:25.637Z,99368.72
2023-04-01T20:57:41.157Z,99375.88
2023-04-01T21:00:32.595Z,99376.97
2023-04-01T21:03:18.283Z,99373.50
2023-04-01T21:06:04.350Z,99372.63
2023-04-01T21:08:59.951Z,99364.00
2023-04-01T21:11:32.662Z,99364.91
2023-04-01T21:14:17.915Z,99357.13
2023-04-01T21:17:23.918Z,99350.28
2023-04-01T21:20:00.669Z,99344.97
2023-04-01T21:22:41.826Z,99348.59
2023-04-01T21:25:27.485Z,99347.75
2023-04-01T21:28:16.420Z,99343.38
2023-04-01T21:31:34.993Z,99350.53
2023-04-01T21:34:32.925Z,99346.09
2023-04-01T21:37:19.037Z,99337.38
2023-04-01T21:40:06.832Z,99333.94
2023-04-01T21:42:50.231Z,99340.00
2023-04-01T21:45:57.225Z,99330.38
2023-04-01T21:48:54.514Z,99331.22
2023-04-01T21:51:40.815Z,99329.41
2023-04-01T21:54:32.042Z,99333.78
2023-04-01T21:57:08.172Z,99330.97
2023-04-01T21:59:41.535Z,99328.31
2023-04-01T22:02:37.822Z,99326.53
2023-04-01T22:05:21.367Z,99325.66
2023-04-01T22:08:03.079Z,99333.63
2023-04-01T22:10:36.335Z,99333.63
2023-04-01T22:13:26.072Z,99325.78
2023-04-01T22:16:18.688Z,99337.22
2023-04-01T22:19:23.575Z,99327.47
2023-04-01T22:22:14.262Z,99325.59
2023-04-01T22:24:44.400Z,99332.50
2023-04-01T22:27:35.936Z,99332.34
2023-04-01T22:30:21.704Z,99331.25
2023-04-01T22:32:53.598Z,99325.88
2023-04-01T22:35:39.133Z,99339.97
2023-04-01T22:38:28.400Z,99332.03
2023-04-01T22:41:13.652Z,99336.41
2023-04-01T22:43:44.328Z,99339.81
2023-04-01T22:46:27.500Z,99332.72
2023-04-01T22:49:07.195Z,99327.41
2023-04-01T22:51:46.022Z,99323.94
2023-04-01T22:54:29.056Z,99320.41
2023-04-01T22:57:01.179Z,99321.34
2023-04-01T23:00:13.766Z,99316.91
2023-04-01T23:02:48.232Z,99311.59
2023-04-01T23:05:19.715Z,99311.59
2023-04-01T23:08:11.450Z,99310.69
2023-04-01T23:10:55.291Z,99309.03
2023-04-01T23:13:49.464Z,99313.47
2023-04-01T23:16:20.728Z,99314.50
2023-04-01T23:18:58.388Z,99312.78
2023-04-01T23:21:52.980Z,99311.09
2023-04-01T23:24:46.354Z,99313.88
2023-04-01T23:27:20.896Z,99310.41
2023-04-01T23:29:47.969Z,99306.03
2023-04-01T23:32:20.509Z,99304.31
2023-04-01T23:34:50.879Z,99305.19
2023-04-01T23:37:20.401Z,99303.56
2023-04-01T23:39:54.359Z,99300.97
2023-04-01T23:42:42.306Z,99297.41
2023-04-01T23:45:18.972Z,99298.34
2023-04-01T23:47:47.976Z,99298.41
2023-04-01T23:50:19.462Z,99283.56
2023-04-01T23:53:04.381Z,99298.59
2023-04-01T23:55:35.819Z,99292.44
2023-04-01T23:58:06.273Z,99296.88
